Time;durP1;ratioP1;P1;durP2;ratioP2;P2;SDS_P1;SDS_P2;PMS_P1;PMS_P2;Temp;Humidity;BMP_temperature;BMP_pressure;BME280_temperature;BME280_humidity;BME280_pressure;Samples;Min_cycle;Max_cycle;Signal;HPM_P1;HPM_P2
2023/09/22 00:00:54;;;;;;;1.17;0.73;;;15.20;99.90;;;;;;5054204;28;20173;-82
2023/09/22 00:03:20;;;;;;;0.90;0.80;;;15.30;99.90;;;;;;5055320;28;20178;-82
2023/09/22 00:05:46;;;;;;;1.27;0.80;;;15.30;99.90;;;;;;5054380;28;20198;-82
2023/09/22 00:08:12;;;;;;;2.83;0.90;;;15.30;99.90;;;;;;5055120;28;20170;-83
2023/09/22 00:10:38;;;;;;;1.47;1.03;;;15.20;99.90;;;;;;5053952;28;20182;-82
2023/09/22 00:13:04;;;;;;;1.60;1.00;;;15.20;99.90;;;;;;5055201;28;20209;-82
2023/09/22 00:15:29;;;;;;;1.07;0.90;;;15.10;99.90;;;;;;5054824;28;20200;-82
2023/09/22 00:17:55;;;;;;;1.10;1.00;;;15.10;99.90;;;;;;5054915;28;20166;-82
2023/09/22 00:20:22;;;;;;;1.57;1.00;;;15.10;99.90;;;;;;5055219;28;20197;-81
2023/09/22 00:22:48;;;;;;;2.20;1.00;;;15.00;99.90;;;;;;5053693;28;20178;-82
2023/09/22 00:25:15;;;;;;;1.30;1.03;;;15.00;99.90;;;;;;5053889;28;20208;-82
2023/09/22 00:27:41;;;;;;;1.83;1.10;;;15.00;99.90;;;;;;5054026;28;20178;-82
2023/09/22 00:30:09;;;;;;;1.50;1.13;;;15.00;99.90;;;;;;5055408;28;20177;-83
2023/09/22 00:32:35;;;;;;;1.20;1.10;;;15.00;99.90;;;;;;5054872;28;20212;-82
2023/09/22 00:37:28;;;;;;;1.53;1.00;;;15.00;99.90;;;;;;5056802;28;20217;-82
2023/09/22 00:39:54;;;;;;;1.17;1.00;;;15.00;99.90;;;;;;5058364;28;20166;-83
2023/09/22 00:42:20;;;;;;;1.30;1.07;;;15.00;99.90;;;;;;5057966;28;20166;-83
2023/09/22 00:44:45;;;;;;;1.10;1.00;;;15.00;99.90;;;;;;5058490;28;20181;-83
2023/09/22 00:47:15;;;;;;;1.33;1.10;;;15.00;99.90;;;;;;5059159;28;20189;-83
2023/09/22 00:49:45;;;;;;;2.90;1.10;;;15.00;99.90;;;;;;5057924;28;20174;-82
2023/09/22 00:52:13;;;;;;;1.77;1.10;;;15.00;99.90;;;;;;5059354;28;20232;-84
2023/09/22 00:54:39;;;;;;;2.57;1.10;;;15.00;99.90;;;;;;5057278;28;20174;-83
2023/09/22 00:57:06;;;;;;;1.97;1.13;;;15.00;99.90;;;;;;5057586;28;20193;-83
2023/09/22 00:59:33;;;;;;;2.40;1.00;;;15.00;99.90;;;;;;5058786;28;20174;-83
2023/09/22 01:02:00;;;;;;;1.20;1.10;;;14.90;99.90;;;;;;5056897;28;20243;-82
2023/09/22 01:04:26;;;;;;;1.07;0.97;;;14.90;99.90;;;;;;5058338;28;20170;-82
2023/09/22 01:06:51;;;;;;;2.47;1.10;;;14.90;99.90;;;;;;5059246;28;20190;-83
2023/09/22 01:09:17;;;;;;;1.83;1.23;;;14.90;99.90;;;;;;5057381;28;20185;-83
2023/09/22 01:11:44;;;;;;;1.40;1.20;;;14.90;99.90;;;;;;5059151;28;20193;-84
2023/09/22 01:14:10;;;;;;;1.57;1.10;;;14.90;99.90;;;;;;5057516;28;20174;-84
2023/09/22 01:16:36;;;;;;;2.00;1.40;;;14.90;99.90;;;;;;5057132;28;20731;-83
2023/09/22 01:19:01;;;;;;;1.57;1.40;;;14.90;99.90;;;;;;5058380;28;20174;-83
2023/09/22 01:21:31;;;;;;;1.20;1.10;;;14.90;99.90;;;;;;5058291;28;20181;-83
2023/09/22 01:24:00;;;;;;;1.30;1.20;;;14.90;99.90;;;;;;5059021;28;20176;-82
2023/09/22 01:26:27;;;;;;;1.60;1.20;;;14.90;99.90;;;;;;5058469;28;20224;-84
2023/09/22 01:28:52;;;;;;;1.30;1.20;;;14.90;99.90;;;;;;5059241;28;20214;-83
2023/09/22 01:31:18;;;;;;;1.60;1.50;;;14.90;99.90;;;;;;5056667;28;20177;-85
2023/09/22 01:33:46;;;;;;;1.80;1.40;;;14.90;99.90;;;;;;5056861;28;20296;-83
2023/09/22 01:36:15;;;;;;;1.53;1.30;;;14.90;99.90;;;;;;5057084;28;20213;-83
2023/09/22 01:38:41;;;;;;;1.50;1.40;;;14.90;99.90;;;;;;5057452;28;20201;-83
2023/09/22 01:41:13;;;;;;;1.93;1.50;;;14.90;99.90;;;;;;5057531;28;20299;-83
2023/09/22 01:43:39;;;;;;;2.00;1.70;;;14.80;99.90;;;;;;5058467;28;20287;-83
2023/09/22 01:46:05;;;;;;;2.20;2.00;;;14.80;99.90;;;;;;5057893;28;20217;-83
2023/09/22 01:48:31;;;;;;;1.90;1.70;;;14.80;99.90;;;;;;5057229;28;20196;-83
2023/09/22 01:51:02;;;;;;;1.77;1.60;;;14.90;99.90;;;;;;5055410;28;20626;-83
2023/09/22 01:53:27;;;;;;;1.80;1.70;;;14.90;99.90;;;;;;5055962;28;20685;-83
2023/09/22 01:55:53;;;;;;;2.00;1.70;;;14.90;99.90;;;;;;5058249;28;20209;-84
2023/09/22 01:58:20;;;;;;;2.90;1.90;;;14.90;99.90;;;;;;5056892;28;20186;-83
2023/09/22 02:00:48;;;;;;;2.03;1.70;;;14.90;99.90;;;;;;5056266;28;20178;-83
2023/09/22 02:03:14;;;;;;;1.90;1.70;;;14.90;99.90;;;;;;5058000;28;20239;-83
2023/09/22 02:05:39;;;;;;;2.10;1.90;;;15.00;99.90;;;;;;5055838;28;20201;-84
2023/09/22 02:08:05;;;;;;;2.13;1.83;;;15.00;99.90;;;;;;5056580;28;20174;-83
2023/09/22 02:10:31;;;;;;;2.10;1.90;;;14.90;99.90;;;;;;5056299;28;20177;-83
2023/09/22 02:12:56;;;;;;;3.60;1.70;;;14.90;99.90;;;;;;5058133;28;20224;-83
2023/09/22 02:15:22;;;;;;;2.13;1.90;;;14.90;99.90;;;;;;5055794;28;20569;-83
2023/09/22 02:17:48;;;;;;;2.07;1.80;;;14.90;99.90;;;;;;5056605;28;20174;-83
2023/09/22 02:22:45;;;;;;;2.70;2.10;;;14.90;99.90;;;;;;5057720;28;20170;-83
2023/09/22 02:25:12;;;;;;;2.03;1.80;;;14.80;99.90;;;;;;5057343;28;20185;-83
2023/09/22 02:27:37;;;;;;;1.70;1.60;;;14.80;99.90;;;;;;5057346;28;20219;-82
2023/09/22 02:30:03;;;;;;;2.40;1.90;;;14.80;99.90;;;;;;5057420;28;20174;-82
2023/09/22 02:32:29;;;;;;;4.80;2.20;;;14.80;99.90;;;;;;5056972;28;20201;-83
2023/09/22 02:34:55;;;;;;;1.83;1.73;;;14.80;99.90;;;;;;5057763;28;20196;-82
2023/09/22 02:37:21;;;;;;;1.97;1.70;;;14.80;99.90;;;;;;5057942;28;20185;-83
2023/09/22 02:39:47;;;;;;;2.37;2.07;;;14.80;99.90;;;;;;5055804;28;20169;-83
2023/09/22 02:42:13;;;;;;;2.67;1.83;;;14.80;99.90;;;;;;5055532;28;20182;-84
2023/09/22 02:44:39;;;;;;;2.67;1.90;;;14.80;99.90;;;;;;5057101;28;20321;-83
2023/09/22 02:47:05;;;;;;;2.33;2.00;;;14.80;99.90;;;;;;5057162;28;20312;-83
2023/09/22 02:49:30;;;;;;;2.67;1.80;;;14.80;99.90;;;;;;5057255;28;20181;-83
2023/09/22 02:51:56;;;;;;;2.53;2.07;;;14.80;99.90;;;;;;5057185;28;20765;-83
2023/09/22 02:54:22;;;;;;;1.93;1.73;;;14.80;99.90;;;;;;5057778;28;20295;-83
2023/09/22 02:56:49;;;;;;;2.27;1.90;;;14.80;99.90;;;;;;5057226;28;20198;-83
2023/09/22 02:59:15;;;;;;;1.97;1.77;;;14.70;99.90;;;;;;5055784;28;20174;-82
2023/09/22 03:01:41;;;;;;;2.53;1.90;;;14.70;99.90;;;;;;5057397;28;20223;-83
2023/09/22 03:04:09;;;;;;;2.87;1.80;;;14.70;99.90;;;;;;5057284;28;20173;-83
2023/09/22 03:06:35;;;;;;;3.67;2.00;;;14.60;99.90;;;;;;5055419;28;20201;-83
2023/09/22 03:09:01;;;;;;;1.87;1.70;;;14.60;99.90;;;;;;5055930;28;20174;-83
2023/09/22 03:11:26;;;;;;;2.97;2.07;;;14.50;99.90;;;;;;5055512;28;20177;-83
2023/09/22 03:13:52;;;;;;;3.60;2.00;;;14.50;99.90;;;;;;5054940;28;20201;-83
2023/09/22 03:16:18;;;;;;;2.03;1.83;;;14.50;99.90;;;;;;5056922;28;20185;-83
2023/09/22 03:18:44;;;;;;;3.47;1.90;;;14.50;99.90;;;;;;5055574;28;20204;-83
2023/09/22 03:21:10;;;;;;;2.83;2.03;;;14.60;99.90;;;;;;5055108;28;20237;-83
2023/09/22 03:23:35;;;;;;;3.30;1.80;;;14.50;99.90;;;;;;5057520;28;20185;-83
2023/09/22 03:26:04;;;;;;;2.10;1.90;;;14.50;99.90;;;;;;5057077;28;20189;-83
2023/09/22 03:28:30;;;;;;;2.60;1.77;;;14.50;99.90;;;;;;5057034;28;20178;-83
2023/09/22 03:30:58;;;;;;;2.63;1.77;;;14.40;99.90;;;;;;5057086;28;20565;-83
2023/09/22 03:33:24;;;;;;;2.10;1.90;;;14.40;99.90;;;;;;5059180;28;20209;-84
2023/09/22 03:35:50;;;;;;;4.20;2.00;;;14.30;99.90;;;;;;5060584;28;20631;-83
2023/09/22 03:38:15;;;;;;;2.07;1.80;;;14.30;99.90;;;;;;5058810;28;20640;-83
2023/09/22 03:40:41;;;;;;;3.23;2.13;;;14.20;99.90;;;;;;5059102;28;20177;-82
2023/09/22 03:43:08;;;;;;;4.43;1.90;;;14.20;99.90;;;;;;5061106;28;20184;-83
2023/09/22 03:45:34;;;;;;;2.73;1.80;;;14.20;99.90;;;;;;5061102;28;20259;-83
2023/09/22 03:47:59;;;;;;;3.13;1.97;;;14.20;99.90;;;;;;5059084;28;20181;-83
2023/09/22 03:50:25;;;;;;;1.80;1.70;;;14.10;99.90;;;;;;5058689;28;20189;-83
2023/09/22 03:52:51;;;;;;;3.60;1.90;;;14.10;99.90;;;;;;5058031;28;20208;-83
2023/09/22 03:55:16;;;;;;;3.53;1.77;;;14.10;99.90;;;;;;5058359;28;20206;-84
2023/09/22 03:57:42;;;;;;;3.33;1.90;;;14.10;99.90;;;;;;5058035;28;20176;-82
2023/09/22 04:00:17;;;;;;;2.37;1.90;;;14.00;99.90;;;;;;5059393;28;20185;-83
2023/09/22 04:02:46;;;;;;;3.83;1.80;;;14.00;99.90;;;;;;5058601;28;20181;-83
2023/09/22 04:05:12;;;;;;;1.70;1.60;;;14.10;99.90;;;;;;5060432;28;20170;-83
2023/09/22 04:07:39;;;;;;;4.23;1.80;;;14.00;99.90;;;;;;5060385;28;20201;-83
2023/09/22 04:10:06;;;;;;;2.10;1.90;;;14.00;99.90;;;;;;5060150;28;20177;-83
2023/09/22 04:12:33;;;;;;;1.70;1.60;;;14.00;99.90;;;;;;5059362;28;20290;-83
2023/09/22 04:14:59;;;;;;;1.87;1.70;;;14.00;99.90;;;;;;5058151;28;20560;-83
2023/09/22 04:17:25;;;;;;;1.77;1.63;;;14.00;99.90;;;;;;5057808;28;20178;-83
2023/09/22 04:19:50;;;;;;;4.50;1.90;;;14.10;99.90;;;;;;5060182;28;20176;-82
2023/09/22 04:22:17;;;;;;;1.90;1.60;;;14.10;99.90;;;;;;5059708;28;20169;-83
2023/09/22 04:24:47;;;;;;;2.23;1.97;;;14.10;99.90;;;;;;5058116;28;20185;-82
2023/09/22 04:27:14;;;;;;;3.30;1.80;;;14.10;99.90;;;;;;5059932;28;20202;-83
2023/09/22 04:29:40;;;;;;;2.63;1.80;;;14.00;99.90;;;;;;5059541;28;20276;-83
2023/09/22 04:32:06;;;;;;;2.10;1.80;;;14.00;99.90;;;;;;5059966;28;20201;-83
2023/09/22 04:34:35;;;;;;;1.67;1.57;;;13.90;99.90;;;;;;5059472;28;20174;-84
2023/09/22 04:37:05;;;;;;;2.53;1.60;;;13.90;99.90;;;;;;5061608;28;20209;-83
2023/09/22 04:39:34;;;;;;;1.47;1.37;;;14.00;99.90;;;;;;5062490;28;20162;-83
2023/09/22 04:41:59;;;;;;;2.40;1.73;;;14.00;99.90;;;;;;5061787;28;20170;-83
2023/09/22 04:44:25;;;;;;;2.37;1.87;;;13.90;99.90;;;;;;5061463;28;20199;-82
2023/09/22 04:46:50;;;;;;;2.33;1.87;;;13.90;99.90;;;;;;5060551;28;20194;-83
2023/09/22 04:49:16;;;;;;;1.83;1.47;;;13.90;99.90;;;;;;5062532;28;20173;-83
2023/09/22 04:51:42;;;;;;;1.77;1.40;;;13.90;99.90;;;;;;5061391;28;20212;-83
2023/09/22 04:54:07;;;;;;;2.67;1.53;;;13.80;99.90;;;;;;5061886;28;20174;-82
2023/09/22 04:56:33;;;;;;;2.70;1.80;;;13.80;99.90;;;;;;5062243;28;20252;-83
2023/09/22 04:59:00;;;;;;;1.83;1.63;;;13.80;99.90;;;;;;5060110;28;20170;-82
2023/09/22 05:01:26;;;;;;;2.63;1.93;;;13.80;99.90;;;;;;5060997;28;20174;-82
2023/09/22 05:03:51;;;;;;;3.10;1.90;;;13.80;99.90;;;;;;5061872;28;20261;-83
2023/09/22 05:06:17;;;;;;;2.60;1.73;;;13.80;99.90;;;;;;5059623;28;20194;-83
2023/09/22 05:08:42;;;;;;;2.60;1.87;;;13.80;99.90;;;;;;5061159;28;20177;-84
2023/09/22 05:11:08;;;;;;;1.67;1.57;;;13.80;99.90;;;;;;5060246;28;20602;-83
2023/09/22 05:13:35;;;;;;;1.90;1.80;;;13.80;99.90;;;;;;5059131;28;20212;-83
2023/09/22 05:16:20;;;;;;;2.27;2.00;;;13.70;99.90;;;;;;5059890;28;20552;-84
2023/09/22 05:18:45;;;;;;;2.50;1.90;;;13.70;99.90;;;;;;5060058;28;20170;-83
2023/09/22 05:21:11;;;;;;;2.43;1.90;;;13.70;99.90;;;;;;5057968;28;20227;-84
2023/09/22 05:23:37;;;;;;;2.10;1.90;;;13.70;99.90;;;;;;5059584;28;20188;-84
2023/09/22 05:26:07;;;;;;;2.97;1.90;;;13.60;99.90;;;;;;5059046;28;20284;-84
2023/09/22 05:28:33;;;;;;;2.13;1.77;;;13.60;99.90;;;;;;5059307;28;20273;-84
2023/09/22 05:30:59;;;;;;;3.37;1.80;;;13.60;99.90;;;;;;5057281;28;20227;-84
2023/09/22 05:33:24;;;;;;;2.63;1.80;;;13.60;99.90;;;;;;5058125;28;20595;-84
2023/09/22 05:35:50;;;;;;;2.00;1.77;;;13.60;99.90;;;;;;5057608;28;20209;-83
2023/09/22 05:38:17;;;;;;;1.93;1.73;;;13.60;99.90;;;;;;5057147;28;20174;-83
2023/09/22 05:40:43;;;;;;;2.30;1.80;;;13.60;99.90;;;;;;5058588;28;20170;-83
2023/09/22 05:43:12;;;;;;;3.33;2.00;;;13.60;99.90;;;;;;5059120;28;20174;-84
2023/09/22 05:45:38;;;;;;;2.47;2.07;;;13.60;99.90;;;;;;5058342;28;20190;-84
2023/09/22 05:48:04;;;;;;;2.97;1.70;;;13.60;99.90;;;;;;5058798;28;20231;-85
2023/09/22 05:50:29;;;;;;;3.27;1.90;;;13.60;99.90;;;;;;5056345;28;20646;-83
2023/09/22 05:52:55;;;;;;;4.53;1.87;;;13.60;99.90;;;;;;5056707;28;20204;-83
2023/09/22 05:55:22;;;;;;;2.07;1.80;;;13.70;99.90;;;;;;5058283;28;20326;-84
2023/09/22 05:57:50;;;;;;;2.67;1.90;;;13.70;99.90;;;;;;5056352;28;20173;-85
2023/09/22 06:00:16;;;;;;;1.90;1.77;;;13.70;99.90;;;;;;5058407;28;20170;-84
2023/09/22 06:02:46;;;;;;;3.87;1.90;;;13.70;99.90;;;;;;5056576;28;20272;-85
2023/09/22 06:05:12;;;;;;;3.77;1.63;;;13.70;99.90;;;;;;5056747;28;20611;-85
2023/09/22 06:07:38;;;;;;;2.13;1.63;;;13.70;99.90;;;;;;5058820;28;20169;-84
2023/09/22 06:10:05;;;;;;;3.00;2.10;;;13.70;99.90;;;;;;5056080;28;20173;-84
2023/09/22 06:12:31;;;;;;;1.93;1.63;;;13.70;99.90;;;;;;5057991;28;20232;-83
2023/09/22 06:14:59;;;;;;;2.30;1.70;;;13.60;99.90;;;;;;5058600;28;20170;-84
2023/09/22 06:17:25;;;;;;;4.83;1.80;;;13.60;99.90;;;;;;5057855;28;20192;-84
2023/09/22 06:19:51;;;;;;;1.60;1.50;;;13.70;99.90;;;;;;5057892;28;20200;-84
2023/09/22 06:22:20;;;;;;;3.00;1.43;;;13.70;99.90;;;;;;5055885;28;20542;-83
2023/09/22 06:24:47;;;;;;;2.03;1.67;;;13.70;99.90;;;;;;5057565;28;20236;-84
2023/09/22 06:27:12;;;;;;;2.53;1.57;;;13.70;99.90;;;;;;5055922;28;20255;-84
2023/09/22 06:29:38;;;;;;;1.53;1.43;;;13.70;99.90;;;;;;5055502;28;20174;-84
2023/09/22 06:32:04;;;;;;;2.67;1.40;;;13.60;99.90;;;;;;5055691;28;20197;-84
2023/09/22 06:34:31;;;;;;;1.77;1.67;;;13.60;99.90;;;;;;5055707;28;20192;-83
2023/09/22 06:36:56;;;;;;;2.53;1.50;;;13.60;99.90;;;;;;5063967;23;20711;-88
2023/09/22 06:39:22;;;;;;;2.70;1.43;;;13.60;99.90;;;;;;5017105;28;20220;-88
2023/09/22 06:41:48;;;;;;;1.83;1.50;;;13.70;99.90;;;;;;5016425;28;20221;-88
2023/09/22 06:44:13;;;;;;;4.00;1.40;;;13.60;99.90;;;;;;5017642;28;20178;-87
2023/09/22 06:46:39;;;;;;;4.43;1.60;;;13.70;99.90;;;;;;5017196;28;20240;-87
2023/09/22 06:49:05;;;;;;;1.63;1.40;;;13.70;99.90;;;;;;5016999;28;20166;-88
2023/09/22 06:51:31;;;;;;;1.40;1.27;;;13.60;99.90;;;;;;5034094;28;20185;-87
2023/09/22 06:53:57;;;;;;;1.97;1.80;;;13.70;99.90;;;;;;5015797;28;20276;-88
2023/09/22 06:56:22;;;;;;;2.50;1.30;;;13.70;99.90;;;;;;5018313;28;20186;-88
2023/09/22 06:58:49;;;;;;;1.97;1.63;;;13.70;99.90;;;;;;5034606;28;20181;-87
2023/09/22 07:01:16;;;;;;;2.00;1.60;;;13.70;99.90;;;;;;5016281;28;20174;-88
2023/09/22 07:03:44;;;;;;;2.77;1.60;;;13.70;99.90;;;;;;5017346;28;20179;-88
2023/09/22 07:06:13;;;;;;;3.77;1.80;;;13.80;99.90;;;;;;5016146;28;20249;-88
2023/09/22 07:08:39;;;;;;;2.63;1.40;;;13.80;99.90;;;;;;5038610;28;20182;-88
2023/09/22 07:11:09;;;;;;;1.50;1.40;;;13.80;99.90;;;;;;5020285;28;20319;-88
2023/09/22 07:13:40;;;;;;;2.27;1.53;;;13.90;99.90;;;;;;5020059;28;20229;-88
2023/09/22 07:16:06;;;;;;;3.03;1.60;;;13.90;99.90;;;;;;5020019;28;20224;-88
2023/09/22 07:18:32;;;;;;;2.57;1.47;;;13.90;99.90;;;;;;5019667;28;20174;-87
2023/09/22 07:20:57;;;;;;;1.50;1.40;;;13.90;99.90;;;;;;5037235;28;20178;-87
2023/09/22 07:23:24;;;;;;;1.50;1.40;;;14.00;99.90;;;;;;5037943;28;20209;-88
2023/09/22 07:26:03;;;;;;;1.80;1.50;;;14.00;99.90;;;;;;5037953;28;20232;-88
2023/09/22 07:28:30;;;;;;;1.30;1.20;;;14.10;99.90;;;;;;5037505;28;20212;-88
2023/09/22 07:30:56;;;;;;;2.00;1.50;;;14.00;99.90;;;;;;5037580;28;20178;-88
2023/09/22 07:33:32;;;;;;;1.73;1.63;;;14.10;99.90;;;;;;5019461;28;20225;-88
2023/09/22 07:35:59;;;;;;;1.77;1.40;;;14.20;99.90;;;;;;5019631;28;20206;-88
2023/09/22 07:38:26;;;;;;;2.30;1.53;;;14.30;99.90;;;;;;5019997;28;20181;-88
2023/09/22 07:40:52;;;;;;;1.50;1.20;;;14.40;99.90;;;;;;5037281;28;20242;-88
2023/09/22 07:43:17;;;;;;;2.63;1.53;;;14.50;99.90;;;;;;5038467;28;20198;-88
2023/09/22 07:45:44;;;;;;;3.63;1.40;;;14.50;99.90;;;;;;5022505;28;20186;-88
2023/09/22 07:48:11;;;;;;;1.60;1.47;;;14.50;99.90;;;;;;5038150;28;20180;-88
2023/09/22 07:50:39;;;;;;;3.77;1.30;;;14.50;99.90;;;;;;5020583;28;20178;-87
2023/09/22 07:53:04;;;;;;;1.37;1.27;;;14.60;99.90;;;;;;5038830;28;20202;-88
2023/09/22 07:55:30;;;;;;;2.50;1.50;;;14.60;99.90;;;;;;5020952;28;20172;-88
2023/09/22 07:57:56;;;;;;;3.03;1.50;;;14.60;99.90;;;;;;5020094;28;20175;-88
2023/09/22 08:00:26;;;;;;;2.17;1.30;;;14.70;99.90;;;;;;5037266;28;20170;-88
2023/09/22 08:02:52;;;;;;;2.13;1.30;;;14.70;99.90;;;;;;5019892;28;20178;-88
2023/09/22 08:05:18;;;;;;;1.30;1.20;;;14.70;99.90;;;;;;5019253;28;20178;-88
2023/09/22 08:07:45;;;;;;;1.60;1.27;;;14.70;99.90;;;;;;5019264;28;20198;-88
2023/09/22 08:10:12;;;;;;;1.53;1.30;;;14.70;99.90;;;;;;5036955;28;20166;-88
2023/09/22 08:12:38;;;;;;;2.27;1.10;;;14.70;99.90;;;;;;5019633;28;20260;-88
2023/09/22 08:15:04;;;;;;;1.27;1.10;;;14.70;99.90;;;;;;5037229;28;20170;-87
2023/09/22 08:17:30;;;;;;;1.90;1.20;;;14.70;99.90;;;;;;5018496;28;20282;-88
2023/09/22 08:19:56;;;;;;;1.60;1.20;;;14.70;99.90;;;;;;5051736;28;20194;-88
2023/09/22 08:22:21;;;;;;;2.27;1.17;;;14.70;99.90;;;;;;5021389;28;20201;-88
2023/09/22 08:24:47;;;;;;;2.60;1.20;;;14.80;99.90;;;;;;5036243;28;20678;-88
2023/09/22 08:27:13;;;;;;;2.90;1.10;;;14.90;99.90;;;;;;5018620;28;20358;-88
2023/09/22 08:29:39;;;;;;;1.50;1.40;;;15.10;99.90;;;;;;5017770;28;20179;-88
2023/09/22 08:32:05;;;;;;;4.70;1.30;;;15.20;99.90;;;;;;5017989;28;20181;-88
2023/09/22 08:34:40;;;;;;;1.33;1.03;;;15.40;99.90;;;;;;5018417;28;20179;-88
2023/09/22 08:37:05;;;;;;;1.47;1.20;;;15.40;99.90;;;;;;5018208;28;20205;-88
2023/09/22 08:39:31;;;;;;;1.27;1.00;;;15.40;99.90;;;;;;5035905;28;20183;-88
2023/09/22 08:41:58;;;;;;;1.80;1.07;;;15.40;99.90;;;;;;5035419;28;20698;-88
2023/09/22 08:44:28;;;;;;;3.03;1.17;;;15.30;99.90;;;;;;5035937;28;20189;-88
2023/09/22 08:46:54;;;;;;;1.60;1.00;;;15.30;99.90;;;;;;5017494;28;20276;-88
2023/09/22 08:49:23;;;;;;;1.70;0.90;;;15.30;99.90;;;;;;5017638;28;20182;-86
2023/09/22 08:51:49;;;;;;;1.60;1.00;;;15.50;99.90;;;;;;5017182;28;20235;-88
2023/09/22 08:54:15;;;;;;;1.17;1.07;;;15.60;99.90;;;;;;5035411;28;20232;-88
2023/09/22 08:56:40;;;;;;;2.43;1.20;;;15.60;99.90;;;;;;5017379;28;20198;-88
2023/09/22 08:59:09;;;;;;;2.07;1.00;;;15.60;99.90;;;;;;5035728;28;20174;-88
2023/09/22 09:01:35;;;;;;;1.00;0.90;;;15.70;99.90;;;;;;5038300;28;20178;-88
2023/09/22 09:04:34;;;;;;;1.40;1.10;;;15.80;99.90;;;;;;5019508;28;20182;-89
2023/09/22 09:07:02;;;;;;;1.23;0.80;;;16.00;99.90;;;;;;5017099;28;20202;-88
2023/09/22 09:09:43;;;;;;;1.90;1.30;;;16.00;99.90;;;;;;5017394;28;20677;-88
2023/09/22 09:12:10;;;;;;;2.97;1.10;;;15.90;99.90;;;;;;5035091;28;20197;-89
2023/09/22 09:14:38;;;;;;;1.17;1.07;;;15.80;99.90;;;;;;5017282;28;20174;-88
2023/09/22 09:17:22;;;;;;;2.93;1.00;;;15.70;99.90;;;;;;5034766;28;20194;-88
2023/09/22 09:19:54;;;;;;;2.13;1.00;;;15.50;99.90;;;;;;5034726;28;20178;-88
2023/09/22 09:22:20;;;;;;;2.50;1.10;;;15.60;99.90;;;;;;5016986;28;20181;-88
2023/09/22 09:24:45;;;;;;;1.00;0.90;;;15.60;99.90;;;;;;5017217;28;20182;-88
2023/09/22 09:27:18;;;;;;;1.30;1.00;;;15.70;99.90;;;;;;5016875;28;20198;-88
2023/09/22 09:29:53;;;;;;;1.23;0.90;;;15.70;99.90;;;;;;5016081;28;20206;-88
2023/09/22 09:32:24;;;;;;;1.20;1.00;;;15.80;99.90;;;;;;5016215;28;20197;-89
2023/09/22 09:34:51;;;;;;;1.10;0.90;;;15.80;99.90;;;;;;5034336;28;20179;-88
2023/09/22 09:37:17;;;;;;;1.10;1.00;;;15.80;99.90;;;;;;5017084;28;20221;-89
2023/09/22 09:39:46;;;;;;;1.57;1.20;;;16.00;99.90;;;;;;5016711;28;20179;-88
2023/09/22 09:42:18;;;;;;;1.77;1.07;;;16.10;99.90;;;;;;5016670;28;20181;-89
2023/09/22 09:44:49;;;;;;;2.40;1.10;;;16.20;99.90;;;;;;5017415;28;20182;-88
2023/09/22 09:47:34;;;;;;;1.20;1.10;;;16.20;99.90;;;;;;5017636;28;20208;-88
2023/09/22 09:50:04;;;;;;;1.43;1.00;;;16.20;90.80;;;;;;5034014;28;20189;-88
2023/09/22 09:52:55;;;;;;;1.10;1.00;;;16.30;99.90;;;;;;5033830;28;20347;-89
2023/09/22 09:55:21;;;;;;;1.67;1.20;;;16.30;99.90;;;;;;5034403;28;20249;-89
2023/09/22 09:57:52;;;;;;;1.10;0.90;;;16.40;99.90;;;;;;5034614;28;20216;-88
2023/09/22 10:00:20;;;;;;;1.00;0.90;;;16.50;1.00;;;;;;5034312;28;20170;-88
2023/09/22 10:02:47;;;;;;;2.13;1.00;;;16.50;82.90;;;;;;5015795;28;20265;-88
2023/09/22 10:05:18;;;;;;;1.60;1.20;;;16.60;68.50;;;;;;5016066;28;20185;-88
2023/09/22 10:07:45;;;;;;;1.60;1.00;;;16.70;97.30;;;;;;5015878;28;20197;-88
2023/09/22 10:10:12;;;;;;;1.60;1.00;;;16.70;1.00;;;;;;5015740;28;20220;-88
2023/09/22 10:12:39;;;;;;;1.60;1.10;;;16.60;1.00;;;;;;5033639;28;20233;-88
2023/09/22 10:15:05;;;;;;;0.83;0.83;;;16.70;1.00;;;;;;5036417;28;20175;-88
2023/09/22 10:17:35;;;;;;;1.90;1.00;;;17.00;1.00;;;;;;5037404;28;20194;-88
2023/09/22 10:20:06;;;;;;;1.37;0.90;;;17.20;1.00;;;;;;5020138;28;20171;-89
2023/09/22 10:22:31;;;;;;;1.00;0.90;;;17.50;1.00;;;;;;5019815;28;20241;-89
2023/09/22 10:25:29;;;;;;;1.37;1.00;;;17.50;1.00;;;;;;5035762;28;20202;-88
2023/09/22 10:28:02;;;;;;;1.00;0.90;;;18.00;1.00;;;;;;5021920;28;20198;-89
2023/09/22 10:30:43;;;;;;;1.10;0.90;;;18.20;99.90;;;;;;5018251;28;20381;-88
2023/09/22 10:33:24;;;;;;;1.57;0.90;;;17.90;99.90;;;;;;5032988;28;20206;-89
2023/09/22 10:35:49;;;;;;;1.10;1.00;;;17.60;1.00;;;;;;5015488;28;20295;-89
2023/09/22 10:38:15;;;;;;;2.63;0.93;;;17.50;99.90;;;;;;5015507;28;20261;-88
2023/09/22 10:41:00;;;;;;;2.20;1.00;;;17.20;99.90;;;;;;5017647;28;20186;-88
2023/09/22 10:43:26;;;;;;;1.23;1.00;;;17.10;1.00;;;;;;5017422;28;20186;-88
2023/09/22 10:45:53;;;;;;;0.97;0.93;;;17.10;1.00;;;;;;5015236;28;20266;-90
2023/09/22 10:48:19;;;;;;;0.87;0.80;;;17.00;1.00;;;;;;5033544;28;20183;-88
2023/09/22 10:50:53;;;;;;;0.97;0.77;;;17.00;1.00;;;;;;5014985;28;20174;-89
2023/09/22 10:53:18;;;;;;;0.80;0.80;;;17.10;1.00;;;;;;5032939;28;20289;-88
2023/09/22 10:55:46;;;;;;;1.30;0.80;;;17.30;99.90;;;;;;5032383;28;20226;-88
2023/09/22 10:58:15;;;;;;;1.20;0.90;;;17.40;1.00;;;;;;5014886;28;20180;-89
2023/09/22 11:00:53;;;;;;;3.23;0.90;;;17.40;99.90;;;;;;5032339;28;20178;-88
2023/09/22 11:03:19;;;;;;;1.70;0.90;;;17.40;99.90;;;;;;5015049;28;20178;-88
2023/09/22 11:05:46;;;;;;;1.47;0.90;;;17.80;1.00;;;;;;5015546;28;20263;-89
2023/09/22 11:08:23;;;;;;;1.60;0.87;;;17.80;99.90;;;;;;5033849;28;20182;-88
2023/09/22 11:10:50;;;;;;;1.13;0.90;;;17.70;99.90;;;;;;5032790;28;20181;-88
2023/09/22 11:13:16;;;;;;;1.20;0.87;;;17.70;1.00;;;;;;5033615;28;20224;-88
2023/09/22 11:15:53;;;;;;;0.80;0.80;;;17.60;99.90;;;;;;5032841;28;20184;-89
2023/09/22 11:18:22;;;;;;;1.10;0.90;;;17.30;1.00;;;;;;5015143;28;20678;-89
2023/09/22 11:20:48;;;;;;;1.83;0.90;;;17.40;99.90;;;;;;5033331;28;20185;-88
2023/09/22 11:23:15;;;;;;;1.77;1.00;;;17.30;1.00;;;;;;5015175;28;20231;-88
2023/09/22 11:25:41;;;;;;;3.03;0.90;;;17.20;1.00;;;;;;5015668;28;20190;-89
2023/09/22 11:28:06;;;;;;;1.53;0.90;;;17.30;99.90;;;;;;5033360;28;20170;-88
2023/09/22 11:30:33;;;;;;;0.80;0.80;;;17.80;1.00;;;;;;5032827;28;20178;-88
2023/09/22 11:32:59;;;;;;;1.83;1.00;;;18.40;99.90;;;;;;5015520;28;20281;-88
2023/09/22 11:35:41;;;;;;;1.27;0.80;;;18.50;99.90;;;;;;5015122;28;20171;-88
2023/09/22 11:38:24;;;;;;;0.87;0.80;;;18.40;99.90;;;;;;5015792;28;20194;-88
2023/09/22 11:41:10;;;;;;;1.70;0.93;;;18.20;1.00;;;;;;5032695;28;20174;-88
2023/09/22 11:43:43;;;;;;;1.20;0.90;;;18.00;1.00;;;;;;5015645;28;20548;-89
2023/09/22 11:46:10;;;;;;;1.90;1.10;;;18.00;1.00;;;;;;5032848;28;20202;-89
2023/09/22 11:48:59;;;;;;;1.67;1.00;;;18.30;1.00;;;;;;5033783;28;20170;-89
2023/09/22 11:51:39;;;;;;;0.90;0.80;;;18.00;1.00;;;;;;5015616;28;20174;-88
2023/09/22 11:54:08;;;;;;;1.50;1.00;;;17.90;99.90;;;;;;5019811;28;20304;-89
2023/09/22 11:56:34;;;;;;;1.57;1.00;;;18.20;1.00;;;;;;5037246;28;20193;-89
2023/09/22 11:59:11;;;;;;;2.10;0.73;;;18.40;28.50;;;;;;5037515;28;20170;-89
2023/09/22 12:01:37;;;;;;;0.80;0.80;;;18.20;99.90;;;;;;5018437;28;20223;-89
2023/09/22 12:04:06;;;;;;;1.40;1.00;;;18.30;1.00;;;;;;5035601;28;20170;-89
2023/09/22 12:06:33;;;;;;;1.30;1.00;;;18.70;1.00;;;;;;5035223;28;20701;-88
2023/09/22 12:08:59;;;;;;;1.87;0.90;;;18.80;46.20;;;;;;5035260;28;20260;-89
2023/09/22 12:11:25;;;;;;;1.37;0.90;;;19.20;1.00;;;;;;5035517;28;20189;-88
2023/09/22 12:13:51;;;;;;;1.23;1.00;;;19.20;99.90;;;;;;5017830;28;20198;-88
2023/09/22 12:16:17;;;;;;;0.80;0.70;;;18.80;1.00;;;;;;5017293;28;20255;-88
2023/09/22 12:18:42;;;;;;;2.50;0.90;;;18.60;1.00;;;;;;5035120;28;20175;-88
2023/09/22 12:21:08;;;;;;;1.50;0.97;;;18.40;1.00;;;;;;5017176;28;20171;-88
2023/09/22 12:23:34;;;;;;;0.90;0.90;;;18.40;99.90;;;;;;5017149;28;20178;-89
2023/09/22 12:26:00;;;;;;;0.80;0.80;;;18.40;99.90;;;;;;5035108;28;20190;-88
2023/09/22 12:28:26;;;;;;;1.27;0.97;;;18.50;99.90;;;;;;5017272;28;20638;-88
2023/09/22 12:30:52;;;;;;;1.77;0.93;;;18.70;1.00;;;;;;5035434;28;20233;-88
2023/09/22 12:33:18;;;;;;;1.07;1.00;;;18.60;1.00;;;;;;5017411;28;20198;-89
2023/09/22 12:38:14;;;;;;;1.00;0.90;;;18.30;18.40;;;;;;5091227;23;20230;-83
2023/09/22 12:40:40;;;;;;;1.30;0.90;;;18.50;37.30;;;;;;5040610;28;20244;-84
2023/09/22 12:43:06;;;;;;;0.90;0.90;;;19.10;99.90;;;;;;5040472;28;20177;-83
2023/09/22 12:45:31;;;;;;;0.90;0.90;;;19.70;99.90;;;;;;5040469;28;20174;-83
2023/09/22 12:47:58;;;;;;;1.98;1.00;;;19.90;1.00;;;;;;5022665;28;20258;-84
2023/09/22 12:50:23;;;;;;;1.80;1.10;;;19.90;99.90;;;;;;5023431;28;20182;-83
2023/09/22 12:52:49;;;;;;;1.83;1.00;;;20.00;1.00;;;;;;5040723;28;20202;-81
2023/09/22 12:55:15;;;;;;;4.15;1.10;;;19.70;99.90;;;;;;5022621;28;20270;-83
2023/09/22 12:57:40;;;;;;;1.23;1.10;;;19.20;1.00;;;;;;5041507;28;20217;-83